FAHS/HDS METAR and TAF weather

Enter ICAO airport designator
Station Type Date Time Source
FAHS METAR 2018/09/21 23:00 UTC NOAA

FAHS 212300Z AUTO 20006KT //// // ////// 19/16 Q1021


Station Type Date Time Source
FAHS Decoded METAR 2018/09/21 23:00 UTC NOAA

Hoedspruit, South Africa (FAHS) 24-22S 031-02E 500M
Sep 21, 2018 - 07:00 PM EDT / 2018.09.21 2300 UTC
Wind: from the SSW (200 degrees) at 7 MPH (6 KT):0
Temperature: 66 F (19 C)
Dew Point: 60 F (16 C)
Relative Humidity: 82%
Pressure (altimeter): 30.15 in. Hg (1021 hPa)
ob: FAHS 212300Z AUTO 20006KT //// // ////// 19/16 Q1021
cycle: 23

Station Type Date Time Source
FAHS TAF 2017/05/23 04:01 UTC NOAA

TAF FAHS 230300Z 2304/2315 VRB02KT CAVOK TX29/2312ZTN12/2304Z


Example: see airport list